createdAt,value
2018-11-20T00:01:47.679Z,2.10
2018-11-20T00:05:05.085Z,2.27
2018-11-20T00:11:19.265Z,2.17
2018-11-20T00:14:06.848Z,2.20
2018-11-20T00:17:04.645Z,2.50
2018-11-20T00:23:16.895Z,2.13
2018-11-20T00:26:11.955Z,2.30
2018-11-20T00:29:29.992Z,2.60
2018-11-20T00:32:14.488Z,2.13
2018-11-20T00:35:03.505Z,2.30
2018-11-20T00:37:51.076Z,2.30
2018-11-20T00:40:39.308Z,2.70
2018-11-20T00:43:19.002Z,2.47
2018-11-20T00:46:26.237Z,2.97
2018-11-20T00:49:14.560Z,3.03
2018-11-20T00:51:55.596Z,2.47
2018-11-20T00:54:59.036Z,2.03
2018-11-20T00:57:56.721Z,2.60
2018-11-20T01:00:51.146Z,2.00
2018-11-20T01:03:54.778Z,2.13
2018-11-20T01:06:53.058Z,2.53
2018-11-20T01:09:41.563Z,2.63
2018-11-20T01:12:31.164Z,2.50
2018-11-20T01:15:26.179Z,2.50
2018-11-20T01:18:29.598Z,2.30
2018-11-20T01:21:17.216Z,2.60
2018-11-20T01:24:14.616Z,2.77
2018-11-20T01:27:12.653Z,2.15
2018-11-20T01:30:03.606Z,2.63
2018-11-20T01:33:01.909Z,2.22
2018-11-20T01:35:57.022Z,2.90
2018-11-20T01:38:45.016Z,2.63
2018-11-20T01:41:33.544Z,2.50
2018-11-20T01:44:22.585Z,2.77
2018-11-20T01:47:12.547Z,2.43
2018-11-20T01:50:08.975Z,2.98
2018-11-20T01:52:58.343Z,2.70
2018-11-20T01:55:46.494Z,2.80
2018-11-20T01:58:34.668Z,2.60
2018-11-20T02:01:22.395Z,2.77
2018-11-20T02:04:05.964Z,3.00
2018-11-20T02:06:53.132Z,2.65
2018-11-20T02:09:40.879Z,3.10
2018-11-20T02:12:35.459Z,2.90
2018-11-20T02:15:33.145Z,2.97
2018-11-20T02:18:26.186Z,3.40
2018-11-20T02:21:04.469Z,2.80
2018-11-20T02:23:56.266Z,3.77
2018-11-20T02:26:43.310Z,3.17
2018-11-20T02:29:38.270Z,3.47
2018-11-20T02:32:29.342Z,3.10
2018-11-20T02:35:16.877Z,4.13
2018-11-20T02:38:06.061Z,2.90
2018-11-20T02:40:59.098Z,3.30
2018-11-20T02:43:40.437Z,3.47
2018-11-20T02:46:23.472Z,3.13
2018-11-20T02:49:11.107Z,3.13
2018-11-20T02:51:58.895Z,3.20
2018-11-20T02:54:49.670Z,3.43
2018-11-20T02:57:31.900Z,2.97
2018-11-20T03:00:33.065Z,3.30
2018-11-20T03:03:10.792Z,3.37
2018-11-20T03:05:58.636Z,3.03
2018-11-20T03:08:45.959Z,3.47
2018-11-20T03:11:40.900Z,2.97
2018-11-20T03:14:30.093Z,3.10
2018-11-20T03:17:37.551Z,3.07
2018-11-20T03:20:25.900Z,3.43
2018-11-20T03:23:21.210Z,3.33
2018-11-20T03:26:08.956Z,2.83
2018-11-20T03:29:05.238Z,3.30
2018-11-20T03:31:54.309Z,3.43
2018-11-20T03:34:37.364Z,3.47
2018-11-20T03:37:41.784Z,3.10
2018-11-20T03:40:30.972Z,3.37
2018-11-20T03:43:22.657Z,3.27
2018-11-20T03:46:10.455Z,3.10
2018-11-20T03:49:01.534Z,3.17
2018-11-20T03:51:49.963Z,3.00
2018-11-20T03:54:32.355Z,3.20
2018-11-20T03:57:18.989Z,2.77
2018-11-20T04:00:06.804Z,3.57
2018-11-20T04:02:55.988Z,3.30
2018-11-20T04:05:45.129Z,3.27
2018-11-20T04:08:40.112Z,3.60
2018-11-20T04:11:25.494Z,2.50
2018-11-20T04:14:14.652Z,3.10
2018-11-20T04:17:02.356Z,3.33
2018-11-20T04:19:51.185Z,3.27
2018-11-20T04:22:43.009Z,3.57
2018-11-20T04:25:41.101Z,3.70
2018-11-20T04:28:36.053Z,3.63
2018-11-20T04:31:55.970Z,3.83
2018-11-20T04:34:47.442Z,3.50
2018-11-20T04:37:35.526Z,4.30
2018-11-20T04:40:24.310Z,4.03
2018-11-20T04:43:15.721Z,4.00
2018-11-20T04:46:17.568Z,4.27
2018-11-20T04:49:06.215Z,3.80
2018-11-20T04:52:03.358Z,4.17
2018-11-20T04:55:10.808Z,3.77
2018-11-20T04:58:18.410Z,4.07
2018-11-20T05:01:25.613Z,4.37
2018-11-20T05:04:14.748Z,4.13
2018-11-20T05:07:12.631Z,4.00
2018-11-20T05:10:01.794Z,3.92
2018-11-20T05:13:05.120Z,3.83
2018-11-20T05:15:44.796Z,4.03
2018-11-20T05:18:32.597Z,3.90
2018-11-20T05:21:33.875Z,3.50
2018-11-20T05:24:22.401Z,3.77
2018-11-20T05:27:14.120Z,4.00
2018-11-20T05:30:11.551Z,3.20
2018-11-20T05:32:56.383Z,3.53
2018-11-20T05:35:44.073Z,4.10
2018-11-20T05:38:35.542Z,4.30
2018-11-20T05:41:23.127Z,3.73
2018-11-20T05:44:12.266Z,3.47
2018-11-20T05:47:10.297Z,4.03
2018-11-20T05:50:08.169Z,4.70
2018-11-20T05:53:05.412Z,4.47
2018-11-20T05:55:57.434Z,4.23
2018-11-20T05:58:34.691Z,4.73
2018-11-20T06:01:32.894Z,5.03
2018-11-20T06:04:20.618Z,4.70
2018-11-20T06:07:21.839Z,5.73
2018-11-20T06:10:05.969Z,5.47
2018-11-20T06:12:54.526Z,5.35
2018-11-20T06:15:42.319Z,5.70
2018-11-20T06:18:40.292Z,6.07
2018-11-20T06:21:26.813Z,5.75
2018-11-20T06:24:27.935Z,6.50
2018-11-20T06:27:15.674Z,6.57
2018-11-20T06:30:04.155Z,5.87
2018-11-20T06:32:42.550Z,6.77
2018-11-20T06:36:00.681Z,5.57
2018-11-20T06:39:00.222Z,6.10
2018-11-20T06:41:47.136Z,6.63
2018-11-20T06:44:51.486Z,6.93
2018-11-20T06:47:58.225Z,6.50
2018-11-20T06:50:59.326Z,8.17
2018-11-20T06:53:46.525Z,7.27
2018-11-20T06:56:44.004Z,8.23
2018-11-20T06:59:41.102Z,8.17
2018-11-20T07:02:22.262Z,7.57
2018-11-20T07:05:16.379Z,8.40
2018-11-20T07:08:04.899Z,9.03
2018-11-20T07:10:49.795Z,9.30
2018-11-20T07:13:42.294Z,8.90
2018-11-20T07:16:46.436Z,9.80
2018-11-20T07:19:45.313Z,9.27
2018-11-20T07:22:40.367Z,9.37
2018-11-20T07:25:32.242Z,8.73
2018-11-20T07:28:23.444Z,8.80
2018-11-20T07:31:10.899Z,10.20
2018-11-20T07:34:02.509Z,9.70
2018-11-20T07:36:49.965Z,9.50
2018-11-20T07:39:41.069Z,10.10
2018-11-20T07:42:45.166Z,8.57
2018-11-20T07:45:32.237Z,10.60
2018-11-20T07:48:19.357Z,11.13
2018-11-20T07:51:08.028Z,10.13
2018-11-20T07:53:56.150Z,10.87
2018-11-20T07:56:49.191Z,10.07
2018-11-20T07:59:37.150Z,10.30
2018-11-20T08:02:25.241Z,14.60
2018-11-20T08:05:06.046Z,11.07
2018-11-20T08:07:52.075Z,11.70
2018-11-20T08:10:39.378Z,12.13
2018-11-20T08:13:25.749Z,10.80
2018-11-20T08:16:03.396Z,11.97
2018-11-20T08:18:59.204Z,13.10
2018-11-20T08:21:46.858Z,13.30
2018-11-20T08:24:42.169Z,12.00
2018-11-20T08:27:31.563Z,13.13
2018-11-20T08:30:14.733Z,13.83
2018-11-20T08:33:08.480Z,14.30
2018-11-20T08:35:55.998Z,14.30
2018-11-20T08:38:52.300Z,14.47
2018-11-20T08:41:47.613Z,13.93
2018-11-20T08:44:35.176Z,14.33
2018-11-20T08:47:22.375Z,13.80
2018-11-20T08:50:09.405Z,13.50
2018-11-20T08:52:56.320Z,14.57
2018-11-20T08:55:43.241Z,14.47
2018-11-20T08:58:30.004Z,13.50
2018-11-20T09:01:24.206Z,14.90
2018-11-20T09:04:27.793Z,13.33
2018-11-20T09:07:16.216Z,15.33
2018-11-20T09:10:05.389Z,14.60
2018-11-20T09:12:56.477Z,15.58
2018-11-20T09:15:44.364Z,15.95
2018-11-20T09:18:35.599Z,16.07
2018-11-20T09:21:22.638Z,13.70
2018-11-20T09:24:09.685Z,14.20
2018-11-20T09:27:04.129Z,15.07
2018-11-20T09:29:52.546Z,14.37
2018-11-20T09:32:31.579Z,14.83
2018-11-20T09:35:19.127Z,14.37
2018-11-20T09:38:10.497Z,14.07
2018-11-20T09:41:18.734Z,13.13
2018-11-20T09:44:14.355Z,13.57
2018-11-20T09:47:01.081Z,13.90
2018-11-20T09:49:56.364Z,13.57
2018-11-20T09:52:43.371Z,13.73
2018-11-20T09:55:30.368Z,13.67
2018-11-20T09:58:25.261Z,13.47
2018-11-20T10:01:13.218Z,13.40
2018-11-20T10:04:31.285Z,13.27
2018-11-20T10:11:09.077Z,14.60
2018-11-20T10:14:19.963Z,14.27
2018-11-20T10:17:20.250Z,14.17
2018-11-20T10:20:12.247Z,14.97
2018-11-20T10:23:00.067Z,16.20
2018-11-20T10:26:03.703Z,14.90
2018-11-20T10:28:50.882Z,15.20
2018-11-20T10:31:38.721Z,15.45
2018-11-20T10:34:33.188Z,15.07
2018-11-20T10:37:36.536Z,15.30
2018-11-20T10:40:35.500Z,14.90
2018-11-20T10:43:23.577Z,16.47
2018-11-20T10:46:12.872Z,16.10
2018-11-20T10:49:17.282Z,15.90
2018-11-20T10:52:18.657Z,16.83
2018-11-20T10:55:05.765Z,16.50
2018-11-20T10:57:53.575Z,15.70
2018-11-20T11:00:40.868Z,16.63
2018-11-20T11:03:28.712Z,15.87
2018-11-20T11:06:15.823Z,15.73
2018-11-20T11:09:03.157Z,16.80
2018-11-20T11:11:54.429Z,16.03
2018-11-20T11:14:41.491Z,16.47
2018-11-20T11:17:36.226Z,17.63
2018-11-20T11:20:25.131Z,17.40
2018-11-20T11:23:16.200Z,19.67
2018-11-20T11:26:03.829Z,17.90
2018-11-20T11:28:40.474Z,18.90
2018-11-20T11:31:35.017Z,19.17
2018-11-20T11:34:26.390Z,18.93
2018-11-20T11:37:23.241Z,20.10
2018-11-20T11:40:05.919Z,18.13
2018-11-20T11:42:54.432Z,18.47
2018-11-20T11:48:54.556Z,20.00
2018-11-20T11:51:44.054Z,19.67
2018-11-20T11:54:32.250Z,20.50
2018-11-20T12:00:33.510Z,20.33
2018-11-20T12:03:20.947Z,18.90
2018-11-20T12:06:22.287Z,20.73
2018-11-20T12:09:29.737Z,19.80
2018-11-20T12:12:21.624Z,19.33
2018-11-20T12:15:10.788Z,18.93
2018-11-20T12:17:58.604Z,20.10
2018-11-20T12:20:45.842Z,18.80
2018-11-20T12:23:37.325Z,19.77
2018-11-20T12:26:24.060Z,18.60
2018-11-20T12:29:11.165Z,19.83
2018-11-20T12:32:00.260Z,19.03
2018-11-20T12:34:54.398Z,20.80
2018-11-20T12:37:40.695Z,19.23
2018-11-20T12:40:29.786Z,19.23
2018-11-20T12:43:18.605Z,18.77
2018-11-20T12:46:22.994Z,18.70
2018-11-20T12:49:12.164Z,18.63
2018-11-20T12:52:02.658Z,19.67
2018-11-20T12:54:52.335Z,20.03
2018-11-20T12:57:38.854Z,19.13
2018-11-20T13:00:27.019Z,19.13
2018-11-20T13:03:34.132Z,20.17
2018-11-20T13:06:38.543Z,20.65
2018-11-20T13:09:28.666Z,19.67
2018-11-20T13:12:16.905Z,20.10
2018-11-20T13:15:04.035Z,19.67
2018-11-20T13:18:01.233Z,19.83
2018-11-20T13:20:50.589Z,17.40
2018-11-20T13:23:40.314Z,18.03
2018-11-20T13:26:28.166Z,18.17
2018-11-20T13:29:28.997Z,19.13
2018-11-20T13:32:18.185Z,28.33
2018-11-20T13:35:21.780Z,19.43
2018-11-20T13:38:08.629Z,18.60
2018-11-20T13:41:18.166Z,18.37
2018-11-20T13:44:15.203Z,19.60
2018-11-20T13:47:04.094Z,18.50
2018-11-20T13:50:11.814Z,17.70
2018-11-20T13:53:08.370Z,18.50
2018-11-20T13:55:56.757Z,17.77
2018-11-20T13:58:44.000Z,18.27
2018-11-20T14:01:37.750Z,17.73
2018-11-20T14:04:28.728Z,18.70
2018-11-20T14:07:27.068Z,18.37
2018-11-20T14:10:24.871Z,19.23
2018-11-20T14:13:22.289Z,18.50
2018-11-20T14:16:19.554Z,19.27
2018-11-20T14:19:22.897Z,19.53
2018-11-20T14:22:10.468Z,19.67
2018-11-20T14:25:07.474Z,19.97
2018-11-20T14:28:14.274Z,21.62
2018-11-20T14:31:05.656Z,19.60
2018-11-20T14:33:53.361Z,20.47
2018-11-20T14:36:42.180Z,20.47
2018-11-20T14:39:29.597Z,20.53
2018-11-20T14:42:17.181Z,19.70
2018-11-20T14:45:05.970Z,20.03
2018-11-20T14:48:02.193Z,19.67
2018-11-20T14:50:49.434Z,20.17
2018-11-20T14:53:38.532Z,22.13
2018-11-20T14:56:18.542Z,21.23
2018-11-20T14:59:01.681Z,21.40
2018-11-20T15:01:55.943Z,21.60
2018-11-20T15:04:43.031Z,22.33
2018-11-20T15:07:44.260Z,19.67
2018-11-20T15:10:32.779Z,21.80
2018-11-20T15:14:01.987Z,21.23
2018-11-20T15:16:54.185Z,22.15
2018-11-20T15:19:41.344Z,21.17
2018-11-20T15:22:29.343Z,22.17
2018-11-20T15:25:11.692Z,21.93
2018-11-20T15:28:06.052Z,21.50
2018-11-20T15:30:54.469Z,21.90
2018-11-20T15:33:49.519Z,33.90
2018-11-20T15:36:38.018Z,23.50
2018-11-20T15:39:40.481Z,22.27
2018-11-20T15:42:30.240Z,24.23
2018-11-20T15:45:17.330Z,22.23
2018-11-20T15:48:22.681Z,22.90
2018-11-20T15:51:06.391Z,22.87
2018-11-20T15:54:05.962Z,21.03
2018-11-20T15:57:13.205Z,21.60
2018-11-20T16:00:12.510Z,22.13
2018-11-20T16:03:00.452Z,23.03
2018-11-20T16:06:01.723Z,24.23
2018-11-20T16:08:50.945Z,23.13
2018-11-20T16:11:38.627Z,22.07
2018-11-20T16:14:39.839Z,23.40
2018-11-20T16:17:24.127Z,24.17
2018-11-20T16:20:22.283Z,24.63
2018-11-20T16:23:14.308Z,25.37
2018-11-20T16:26:02.596Z,24.20
2018-11-20T16:29:06.991Z,24.70
2018-11-20T16:32:08.145Z,25.27
2018-11-20T16:35:09.038Z,24.37
2018-11-20T16:37:55.913Z,25.23
2018-11-20T16:40:42.826Z,23.07
2018-11-20T16:43:30.020Z,24.77
2018-11-20T16:46:23.879Z,23.53
2018-11-20T16:49:04.142Z,24.67
2018-11-20T16:51:51.044Z,24.12
2018-11-20T16:54:58.089Z,24.10
2018-11-20T16:57:53.245Z,23.17
2018-11-20T17:00:42.444Z,23.77
2018-11-20T17:03:27.424Z,28.80
2018-11-20T17:06:09.362Z,30.95
2018-11-20T17:08:56.166Z,21.83
2018-11-20T17:12:02.683Z,23.47
2018-11-20T17:14:51.801Z,27.43
2018-11-20T17:17:49.278Z,31.17
2018-11-20T17:20:50.502Z,27.48
2018-11-20T17:23:55.141Z,28.17
2018-11-20T17:26:43.539Z,31.70
2018-11-20T17:29:30.734Z,25.07
2018-11-20T17:32:18.258Z,24.17
2018-11-20T17:35:06.113Z,26.77
2018-11-20T17:38:09.805Z,26.13
2018-11-20T17:41:24.527Z,25.07
2018-11-20T17:50:36.465Z,45.30
2018-11-20T17:56:48.466Z,23.30
2018-11-20T18:06:08.399Z,28.90
2018-11-20T18:09:10.047Z,27.47
2018-11-20T18:12:23.340Z,28.63
2018-11-20T18:39:39.288Z,24.70
2018-11-20T18:42:37.527Z,24.27
2018-11-20T18:45:25.071Z,25.40
2018-11-20T18:48:19.203Z,23.67
2018-11-20T18:51:12.789Z,24.00
2018-11-20T18:54:08.054Z,30.00
2018-11-20T18:56:55.829Z,30.62
2018-11-20T18:59:42.939Z,27.17
2018-11-20T19:02:30.362Z,24.00
2018-11-20T19:05:12.601Z,24.47
2018-11-20T19:08:11.879Z,23.93
2018-11-20T19:10:55.371Z,23.15
2018-11-20T19:13:44.662Z,26.87
2018-11-20T19:16:45.208Z,25.43
2018-11-20T19:19:34.291Z,29.73
2018-11-20T19:22:26.778Z,28.37
2018-11-20T19:25:09.275Z,26.20
2018-11-20T19:27:56.752Z,24.60
2018-11-20T19:30:47.659Z,28.97
2018-11-20T19:33:36.138Z,26.27
2018-11-20T19:36:23.404Z,23.93
2018-11-20T19:39:14.553Z,24.43
2018-11-20T19:41:58.974Z,23.97
2018-11-20T19:44:48.088Z,24.75
2018-11-20T19:47:42.945Z,23.87
2018-11-20T19:50:46.995Z,24.63
2018-11-20T19:53:28.663Z,23.43
2018-11-20T19:56:20.414Z,23.47
2018-11-20T19:59:14.942Z,21.43
2018-11-20T20:02:01.718Z,19.87
2018-11-20T20:04:56.752Z,23.50
2018-11-20T20:07:44.546Z,25.40
2018-11-20T20:10:32.104Z,25.40
2018-11-20T20:13:19.987Z,29.97
2018-11-20T20:16:21.342Z,28.23
2018-11-20T20:19:20.285Z,30.13
2018-11-20T20:22:07.918Z,25.57
2018-11-20T20:25:14.614Z,25.60
2018-11-20T20:28:02.196Z,28.23
2018-11-20T20:31:06.573Z,25.70
2018-11-20T20:33:54.363Z,23.85
2018-11-20T20:36:49.432Z,23.87
2018-11-20T20:39:38.643Z,25.00
2018-11-20T20:42:25.812Z,24.87
2018-11-20T20:45:13.063Z,23.10
2018-11-20T20:48:01.955Z,23.57
2018-11-20T20:50:48.540Z,24.70
2018-11-20T20:53:43.700Z,24.47
2018-11-20T20:56:35.005Z,22.60
2018-11-20T20:59:27.798Z,23.03
2018-11-20T21:02:11.605Z,23.27
2018-11-20T21:05:13.960Z,23.67
2018-11-20T21:08:02.516Z,25.40
2018-11-20T21:10:51.606Z,23.67
2018-11-20T21:13:39.180Z,25.47
2018-11-20T21:16:30.698Z,24.23
2018-11-20T21:19:19.106Z,22.87
2018-11-20T21:22:11.274Z,25.07
2018-11-20T21:25:06.717Z,23.97
2018-11-20T21:28:03.817Z,23.40
2018-11-20T21:31:01.948Z,25.37
2018-11-20T21:34:00.134Z,25.00
2018-11-20T21:36:49.339Z,25.90
2018-11-20T21:39:34.810Z,24.60
2018-11-20T21:42:22.520Z,25.10
2018-11-20T21:45:07.242Z,27.50
2018-11-20T21:47:58.466Z,25.17
2018-11-20T21:50:53.311Z,27.10
2018-11-20T21:53:40.460Z,25.30
2018-11-20T21:56:32.599Z,26.23
2018-11-20T21:59:34.049Z,25.23
2018-11-20T22:02:20.331Z,26.43
2018-11-20T22:05:21.128Z,26.47
2018-11-20T22:08:24.941Z,26.97
2018-11-20T22:11:14.594Z,26.13
2018-11-20T22:14:18.779Z,28.32
2018-11-20T22:17:17.178Z,26.63
2018-11-20T22:20:06.300Z,27.70
2018-11-20T22:23:13.769Z,26.90
2018-11-20T22:26:02.925Z,27.83
2018-11-20T22:29:14.766Z,27.27
2018-11-20T22:32:04.033Z,26.80
2018-11-20T22:34:49.849Z,27.33
2018-11-20T22:37:32.850Z,27.07
2018-11-20T22:40:40.248Z,28.10
2018-11-20T22:43:34.380Z,27.43
2018-11-20T22:46:25.441Z,25.97
2018-11-20T22:49:13.729Z,26.50
2018-11-20T22:52:06.592Z,26.30
2018-11-20T22:54:56.420Z,26.48
2018-11-20T22:57:44.491Z,27.60
2018-11-20T23:00:33.083Z,28.23
2018-11-20T23:03:36.283Z,26.57
2018-11-20T23:06:26.393Z,26.23
2018-11-20T23:08:56.120Z,26.47
2018-11-20T23:11:26.518Z,27.05
2018-11-20T23:13:57.025Z,26.17
2018-11-20T23:16:27.549Z,26.97
2018-11-20T23:18:57.236Z,26.67
2018-11-20T23:21:27.604Z,27.85
2018-11-20T23:23:58.250Z,26.70
2018-11-20T23:26:28.775Z,26.67
2018-11-20T23:28:58.506Z,27.97
2018-11-20T23:31:29.120Z,25.57
2018-11-20T23:33:59.605Z,26.43
2018-11-20T23:36:30.068Z,27.13
2018-11-20T23:39:00.586Z,27.83
2018-11-20T23:41:31.354Z,25.97
2018-11-20T23:44:01.903Z,27.70
2018-11-20T23:46:31.839Z,26.87
2018-11-20T23:49:02.471Z,27.67
2018-11-20T23:51:33.095Z,27.83
2018-11-20T23:54:04.120Z,27.60
2018-11-20T23:56:33.725Z,27.10
2018-11-20T23:59:05.921Z,29.60
